sensor_id;sensor_type;location;lat;lon;timestamp;P1;durP1;ratioP1;P2;durP2;ratioP2
10890;SDS011;5498;50.928;11.598;2023-04-01T00:00:31;641.63;;;449.70;;
10890;SDS011;5498;50.928;11.598;2023-04-01T00:03:34;634.77;;;441.63;;
10890;SDS011;5498;50.928;11.598;2023-04-01T00:06:36;631.40;;;433.03;;
10890;SDS011;5498;50.928;11.598;2023-04-01T00:09:38;639.47;;;456.70;;
10890;SDS011;5498;50.928;11.598;2023-04-01T00:12:41;642.20;;;458.03;;
10890;SDS011;5498;50.928;11.598;2023-04-01T00:15:43;636.93;;;448.03;;
10890;SDS011;5498;50.928;11.598;2023-04-01T00:18:45;629.07;;;420.07;;
10890;SDS011;5498;50.928;11.598;2023-04-01T00:21:48;642.90;;;464.40;;
10890;SDS011;5498;50.928;11.598;2023-04-01T00:24:50;633.20;;;434.47;;
10890;SDS011;5498;50.928;11.598;2023-04-01T00:27:53;634.40;;;434.57;;
10890;SDS011;5498;50.928;11.598;2023-04-01T00:30:55;643.33;;;461.77;;
10890;SDS011;5498;50.928;11.598;2023-04-01T00:33:56;640.13;;;462.10;;
10890;SDS011;5498;50.928;11.598;2023-04-01T00:36:59;635.27;;;435.43;;
10890;SDS011;5498;50.928;11.598;2023-04-01T00:40:01;634.27;;;435.00;;
10890;SDS011;5498;50.928;11.598;2023-04-01T00:43:08;631.13;;;424.27;;
10890;SDS011;5498;50.928;11.598;2023-04-01T00:46:13;631.67;;;420.53;;
10890;SDS011;5498;50.928;11.598;2023-04-01T00:49:16;637.17;;;444.67;;
10890;SDS011;5498;50.928;11.598;2023-04-01T00:52:21;632.20;;;427.60;;
10890;SDS011;5498;50.928;11.598;2023-04-01T00:55:25;634.57;;;434.23;;
10890;SDS011;5498;50.928;11.598;2023-04-01T00:58:32;640.43;;;450.77;;
10890;SDS011;5498;50.928;11.598;2023-04-01T01:01:38;630.77;;;420.73;;
10890;SDS011;5498;50.928;11.598;2023-04-01T01:04:40;631.80;;;431.20;;
10890;SDS011;5498;50.928;11.598;2023-04-01T01:07:43;631.33;;;423.17;;
10890;SDS011;5498;50.928;11.598;2023-04-01T01:10:55;629.63;;;414.70;;
10890;SDS011;5498;50.928;11.598;2023-04-01T01:13:59;631.97;;;429.27;;
10890;SDS011;5498;50.928;11.598;2023-04-01T01:17:09;624.13;;;398.77;;
10890;SDS011;5498;50.928;11.598;2023-04-01T01:20:29;631.50;;;422.53;;
10890;SDS011;5498;50.928;11.598;2023-04-01T01:24:05;629.83;;;418.17;;
10890;SDS011;5498;50.928;11.598;2023-04-01T01:27:31;624.53;;;393.90;;
10890;SDS011;5498;50.928;11.598;2023-04-01T01:30:38;626.40;;;403.37;;
10890;SDS011;5498;50.928;11.598;2023-04-01T01:33:48;628.67;;;405.23;;
10890;SDS011;5498;50.928;11.598;2023-04-01T01:37:05;630.00;;;410.77;;
10890;SDS011;5498;50.928;11.598;2023-04-01T01:40:12;631.67;;;413.83;;
10890;SDS011;5498;50.928;11.598;2023-04-01T01:43:17;636.97;;;445.67;;
10890;SDS011;5498;50.928;11.598;2023-04-01T01:46:23;633.03;;;427.10;;
10890;SDS011;5498;50.928;11.598;2023-04-01T01:49:27;641.23;;;468.20;;
10890;SDS011;5498;50.928;11.598;2023-04-01T01:52:33;622.83;;;403.93;;
10890;SDS011;5498;50.928;11.598;2023-04-01T01:55:36;617.93;;;383.90;;
10890;SDS011;5498;50.928;11.598;2023-04-01T01:58:42;616.07;;;365.77;;
10890;SDS011;5498;50.928;11.598;2023-04-01T02:01:47;613.10;;;368.23;;
10890;SDS011;5498;50.928;11.598;2023-04-01T02:04:53;620.43;;;370.03;;
10890;SDS011;5498;50.928;11.598;2023-04-01T02:07:59;642.50;;;458.93;;
10890;SDS011;5498;50.928;11.598;2023-04-01T02:11:06;638.00;;;433.97;;
10890;SDS011;5498;50.928;11.598;2023-04-01T02:14:13;626.83;;;399.77;;
10890;SDS011;5498;50.928;11.598;2023-04-01T02:17:18;622.13;;;386.53;;
10890;SDS011;5498;50.928;11.598;2023-04-01T02:20:22;620.10;;;379.30;;
10890;SDS011;5498;50.928;11.598;2023-04-01T02:23:27;626.87;;;400.50;;
10890;SDS011;5498;50.928;11.598;2023-04-01T02:26:30;619.73;;;374.63;;
10890;SDS011;5498;50.928;11.598;2023-04-01T02:29:32;637.67;;;427.27;;
10890;SDS011;5498;50.928;11.598;2023-04-01T02:32:34;625.53;;;394.83;;
10890;SDS011;5498;50.928;11.598;2023-04-01T02:35:38;624.57;;;382.77;;
10890;SDS011;5498;50.928;11.598;2023-04-01T02:38:42;645.23;;;435.67;;
10890;SDS011;5498;50.928;11.598;2023-04-01T02:41:46;632.57;;;405.60;;
10890;SDS011;5498;50.928;11.598;2023-04-01T02:44:48;634.00;;;418.03;;
10890;SDS011;5498;50.928;11.598;2023-04-01T02:47:50;625.77;;;399.43;;
10890;SDS011;5498;50.928;11.598;2023-04-01T02:50:52;639.80;;;433.67;;
10890;SDS011;5498;50.928;11.598;2023-04-01T02:53:55;635.80;;;420.47;;
10890;SDS011;5498;50.928;11.598;2023-04-01T02:56:57;630.63;;;414.83;;
10890;SDS011;5498;50.928;11.598;2023-04-01T02:59:58;636.67;;;414.93;;
10890;SDS011;5498;50.928;11.598;2023-04-01T03:03:00;645.20;;;428.90;;
10890;SDS011;5498;50.928;11.598;2023-04-01T03:06:04;635.77;;;428.77;;
10890;SDS011;5498;50.928;11.598;2023-04-01T03:09:08;639.77;;;443.33;;
10890;SDS011;5498;50.928;11.598;2023-04-01T03:12:10;646.97;;;455.27;;
10890;SDS011;5498;50.928;11.598;2023-04-01T03:15:12;630.47;;;408.60;;
10890;SDS011;5498;50.928;11.598;2023-04-01T03:18:15;644.23;;;444.13;;
10890;SDS011;5498;50.928;11.598;2023-04-01T03:21:17;632.97;;;411.33;;
10890;SDS011;5498;50.928;11.598;2023-04-01T03:24:23;632.00;;;411.13;;
10890;SDS011;5498;50.928;11.598;2023-04-01T03:27:25;657.93;;;471.80;;
10890;SDS011;5498;50.928;11.598;2023-04-01T03:30:27;637.83;;;414.90;;
10890;SDS011;5498;50.928;11.598;2023-04-01T03:33:30;629.47;;;410.07;;
10890;SDS011;5498;50.928;11.598;2023-04-01T03:36:32;656.63;;;463.70;;
10890;SDS011;5498;50.928;11.598;2023-04-01T03:39:35;630.93;;;404.17;;
10890;SDS011;5498;50.928;11.598;2023-04-01T03:42:37;638.50;;;437.23;;
10890;SDS011;5498;50.928;11.598;2023-04-01T03:45:43;638.57;;;440.83;;
10890;SDS011;5498;50.928;11.598;2023-04-01T03:48:45;630.80;;;415.40;;
10890;SDS011;5498;50.928;11.598;2023-04-01T03:51:47;628.83;;;407.23;;
10890;SDS011;5498;50.928;11.598;2023-04-01T03:54:50;631.30;;;412.40;;
10890;SDS011;5498;50.928;11.598;2023-04-01T03:57:52;642.07;;;438.13;;
10890;SDS011;5498;50.928;11.598;2023-04-01T04:00:54;629.43;;;400.40;;
10890;SDS011;5498;50.928;11.598;2023-04-01T04:03:56;638.47;;;432.80;;
10890;SDS011;5498;50.928;11.598;2023-04-01T04:06:58;629.93;;;391.90;;
10890;SDS011;5498;50.928;11.598;2023-04-01T04:10:01;636.17;;;419.17;;
10890;SDS011;5498;50.928;11.598;2023-04-01T04:13:03;657.77;;;461.13;;
10890;SDS011;5498;50.928;11.598;2023-04-01T04:16:05;639.57;;;424.13;;
10890;SDS011;5498;50.928;11.598;2023-04-01T04:19:08;636.50;;;424.60;;
10890;SDS011;5498;50.928;11.598;2023-04-01T04:22:10;638.83;;;427.73;;
10890;SDS011;5498;50.928;11.598;2023-04-01T04:25:13;631.97;;;418.80;;
10890;SDS011;5498;50.928;11.598;2023-04-01T04:28:15;641.07;;;430.63;;
10890;SDS011;5498;50.928;11.598;2023-04-01T04:31:18;646.10;;;447.30;;
10890;SDS011;5498;50.928;11.598;2023-04-01T04:34:21;633.70;;;408.20;;
10890;SDS011;5498;50.928;11.598;2023-04-01T04:37:23;639.53;;;416.50;;
10890;SDS011;5498;50.928;11.598;2023-04-01T04:40:27;637.43;;;428.73;;
10890;SDS011;5498;50.928;11.598;2023-04-01T04:43:29;653.67;;;455.10;;
10890;SDS011;5498;50.928;11.598;2023-04-01T04:46:31;635.03;;;415.40;;
10890;SDS011;5498;50.928;11.598;2023-04-01T04:49:33;640.03;;;440.90;;
10890;SDS011;5498;50.928;11.598;2023-04-01T04:52:35;618.20;;;366.27;;
10890;SDS011;5498;50.928;11.598;2023-04-01T04:55:42;626.47;;;391.03;;
10890;SDS011;5498;50.928;11.598;2023-04-01T04:58:45;631.03;;;403.57;;
10890;SDS011;5498;50.928;11.598;2023-04-01T05:01:47;629.40;;;391.63;;
10890;SDS011;5498;50.928;11.598;2023-04-01T05:04:49;631.67;;;407.37;;
10890;SDS011;5498;50.928;11.598;2023-04-01T05:07:51;624.97;;;392.97;;
10890;SDS011;5498;50.928;11.598;2023-04-01T05:10:54;633.60;;;421.70;;
10890;SDS011;5498;50.928;11.598;2023-04-01T05:13:56;628.17;;;388.80;;
10890;SDS011;5498;50.928;11.598;2023-04-01T05:16:58;630.60;;;403.43;;
10890;SDS011;5498;50.928;11.598;2023-04-01T05:20:00;631.03;;;409.57;;
10890;SDS011;5498;50.928;11.598;2023-04-01T05:23:02;635.20;;;426.03;;
10890;SDS011;5498;50.928;11.598;2023-04-01T05:26:06;628.57;;;395.53;;
10890;SDS011;5498;50.928;11.598;2023-04-01T05:29:11;627.30;;;387.33;;
10890;SDS011;5498;50.928;11.598;2023-04-01T05:32:12;627.70;;;399.10;;
10890;SDS011;5498;50.928;11.598;2023-04-01T05:35:15;630.47;;;409.20;;
10890;SDS011;5498;50.928;11.598;2023-04-01T05:38:17;620.47;;;370.53;;
10890;SDS011;5498;50.928;11.598;2023-04-01T05:41:20;636.67;;;410.93;;
10890;SDS011;5498;50.928;11.598;2023-04-01T05:44:22;633.67;;;415.20;;
10890;SDS011;5498;50.928;11.598;2023-04-01T05:47:23;622.57;;;378.53;;
10890;SDS011;5498;50.928;11.598;2023-04-01T05:50:25;625.07;;;393.53;;
10890;SDS011;5498;50.928;11.598;2023-04-01T05:53:27;635.40;;;427.00;;
10890;SDS011;5498;50.928;11.598;2023-04-01T05:56:30;638.03;;;421.43;;
10890;SDS011;5498;50.928;11.598;2023-04-01T05:59:32;629.70;;;401.13;;
10890;SDS011;5498;50.928;11.598;2023-04-01T06:02:34;622.40;;;382.77;;
10890;SDS011;5498;50.928;11.598;2023-04-01T06:05:38;631.67;;;415.10;;
10890;SDS011;5498;50.928;11.598;2023-04-01T06:08:42;633.67;;;415.43;;
10890;SDS011;5498;50.928;11.598;2023-04-01T06:11:51;625.83;;;389.97;;
10890;SDS011;5498;50.928;11.598;2023-04-01T06:15:13;618.83;;;366.40;;
10890;SDS011;5498;50.928;11.598;2023-04-01T06:18:37;627.17;;;391.70;;
10890;SDS011;5498;50.928;11.598;2023-04-01T06:25:31;637.83;;;418.53;;
10890;SDS011;5498;50.928;11.598;2023-04-01T06:32:33;632.17;;;412.77;;
10890;SDS011;5498;50.928;11.598;2023-04-01T06:35:56;628.07;;;399.93;;
10890;SDS011;5498;50.928;11.598;2023-04-01T06:39:54;631.07;;;400.83;;
10890;SDS011;5498;50.928;11.598;2023-04-01T06:43:14;628.27;;;395.03;;
10890;SDS011;5498;50.928;11.598;2023-04-01T06:46:25;635.80;;;425.03;;
10890;SDS011;5498;50.928;11.598;2023-04-01T06:49:40;637.60;;;421.63;;
10890;SDS011;5498;50.928;11.598;2023-04-01T06:52:52;639.60;;;428.97;;
10890;SDS011;5498;50.928;11.598;2023-04-01T06:56:04;636.87;;;413.97;;
10890;SDS011;5498;50.928;11.598;2023-04-01T06:59:10;638.63;;;423.87;;
10890;SDS011;5498;50.928;11.598;2023-04-01T07:02:21;645.83;;;444.47;;
10890;SDS011;5498;50.928;11.598;2023-04-01T07:05:30;644.67;;;442.20;;
10890;SDS011;5498;50.928;11.598;2023-04-01T07:08:36;648.50;;;457.97;;
10890;SDS011;5498;50.928;11.598;2023-04-01T07:11:41;642.73;;;438.20;;
10890;SDS011;5498;50.928;11.598;2023-04-01T07:14:44;647.83;;;467.63;;
10890;SDS011;5498;50.928;11.598;2023-04-01T07:17:50;644.80;;;453.67;;
10890;SDS011;5498;50.928;11.598;2023-04-01T07:20:56;644.87;;;452.17;;
10890;SDS011;5498;50.928;11.598;2023-04-01T07:24:00;641.70;;;439.77;;
10890;SDS011;5498;50.928;11.598;2023-04-01T07:27:08;650.50;;;474.93;;
10890;SDS011;5498;50.928;11.598;2023-04-01T07:30:15;668.60;;;510.97;;
10890;SDS011;5498;50.928;11.598;2023-04-01T07:33:22;659.33;;;492.37;;
10890;SDS011;5498;50.928;11.598;2023-04-01T07:36:32;655.37;;;468.03;;
10890;SDS011;5498;50.928;11.598;2023-04-01T07:39:41;662.83;;;498.70;;
10890;SDS011;5498;50.928;11.598;2023-04-01T07:42:57;655.87;;;478.53;;
10890;SDS011;5498;50.928;11.598;2023-04-01T07:46:17;661.03;;;496.33;;
10890;SDS011;5498;50.928;11.598;2023-04-01T07:49:38;650.90;;;465.90;;
10890;SDS011;5498;50.928;11.598;2023-04-01T07:52:52;654.33;;;473.20;;
10890;SDS011;5498;50.928;11.598;2023-04-01T07:56:08;654.07;;;480.50;;
10890;SDS011;5498;50.928;11.598;2023-04-01T07:59:15;643.60;;;453.00;;
10890;SDS011;5498;50.928;11.598;2023-04-01T08:02:26;646.73;;;454.13;;
10890;SDS011;5498;50.928;11.598;2023-04-01T08:05:44;646.63;;;458.63;;
10890;SDS011;5498;50.928;11.598;2023-04-01T08:08:56;653.33;;;478.23;;
10890;SDS011;5498;50.928;11.598;2023-04-01T08:12:09;650.57;;;491.00;;
10890;SDS011;5498;50.928;11.598;2023-04-01T08:15:23;650.10;;;484.40;;
10890;SDS011;5498;50.928;11.598;2023-04-01T08:18:31;655.07;;;490.87;;
10890;SDS011;5498;50.928;11.598;2023-04-01T08:21:47;655.43;;;506.30;;
10890;SDS011;5498;50.928;11.598;2023-04-01T08:24:52;657.20;;;503.63;;
10890;SDS011;5498;50.928;11.598;2023-04-01T08:28:00;672.07;;;548.57;;
10890;SDS011;5498;50.928;11.598;2023-04-01T08:31:12;662.57;;;524.40;;
10890;SDS011;5498;50.928;11.598;2023-04-01T08:34:19;657.80;;;505.37;;
10890;SDS011;5498;50.928;11.598;2023-04-01T08:37:30;658.63;;;518.53;;
10890;SDS011;5498;50.928;11.598;2023-04-01T08:40:47;669.03;;;557.57;;
10890;SDS011;5498;50.928;11.598;2023-04-01T08:44:04;669.57;;;550.33;;
10890;SDS011;5498;50.928;11.598;2023-04-01T08:47:46;665.70;;;534.90;;
10890;SDS011;5498;50.928;11.598;2023-04-01T08:51:21;671.17;;;561.50;;
10890;SDS011;5498;50.928;11.598;2023-04-01T08:58:35;676.50;;;572.70;;
10890;SDS011;5498;50.928;11.598;2023-04-01T09:02:17;675.47;;;567.90;;
10890;SDS011;5498;50.928;11.598;2023-04-01T09:06:01;670.60;;;555.27;;
10890;SDS011;5498;50.928;11.598;2023-04-01T09:13:39;671.63;;;559.87;;
10890;SDS011;5498;50.928;11.598;2023-04-01T09:17:07;669.40;;;554.47;;
10890;SDS011;5498;50.928;11.598;2023-04-01T09:20:44;662.77;;;529.73;;
10890;SDS011;5498;50.928;11.598;2023-04-01T09:24:19;672.97;;;561.90;;
10890;SDS011;5498;50.928;11.598;2023-04-01T09:27:45;668.70;;;548.13;;
10890;SDS011;5498;50.928;11.598;2023-04-01T09:34:26;658.07;;;514.50;;
10890;SDS011;5498;50.928;11.598;2023-04-01T09:37:41;669.73;;;556.70;;
10890;SDS011;5498;50.928;11.598;2023-04-01T09:40:56;660.87;;;527.27;;
10890;SDS011;5498;50.928;11.598;2023-04-01T09:44:04;670.63;;;561.90;;
10890;SDS011;5498;50.928;11.598;2023-04-01T09:47:16;668.93;;;549.77;;
10890;SDS011;5498;50.928;11.598;2023-04-01T09:50:40;656.27;;;507.93;;
10890;SDS011;5498;50.928;11.598;2023-04-01T09:53:58;656.57;;;510.53;;
10890;SDS011;5498;50.928;11.598;2023-04-01T10:01:30;660.67;;;522.40;;
10890;SDS011;5498;50.928;11.598;2023-04-01T10:04:54;656.10;;;508.23;;
10890;SDS011;5498;50.928;11.598;2023-04-01T10:12:58;661.43;;;508.30;;
10890;SDS011;5498;50.928;11.598;2023-04-01T10:17:00;650.20;;;484.10;;
10890;SDS011;5498;50.928;11.598;2023-04-01T10:20:46;653.00;;;495.00;;
10890;SDS011;5498;50.928;11.598;2023-04-01T10:24:32;652.67;;;497.10;;
10890;SDS011;5498;50.928;11.598;2023-04-01T10:32:01;652.43;;;491.90;;
10890;SDS011;5498;50.928;11.598;2023-04-01T10:43:32;652.20;;;488.13;;
10890;SDS011;5498;50.928;11.598;2023-04-01T10:47:28;648.40;;;476.97;;
10890;SDS011;5498;50.928;11.598;2023-04-01T10:51:23;655.33;;;497.30;;
10890;SDS011;5498;50.928;11.598;2023-04-01T10:54:43;652.67;;;487.67;;
10890;SDS011;5498;50.928;11.598;2023-04-01T10:57:57;651.37;;;479.57;;
10890;SDS011;5498;50.928;11.598;2023-04-01T11:01:44;653.63;;;494.07;;
10890;SDS011;5498;50.928;11.598;2023-04-01T11:05:39;657.63;;;504.77;;
10890;SDS011;5498;50.928;11.598;2023-04-01T11:09:47;652.07;;;490.67;;
10890;SDS011;5498;50.928;11.598;2023-04-01T11:13:34;651.70;;;488.80;;
10890;SDS011;5498;50.928;11.598;2023-04-01T11:17:06;655.10;;;499.33;;
10890;SDS011;5498;50.928;11.598;2023-04-01T11:24:53;651.33;;;485.03;;
10890;SDS011;5498;50.928;11.598;2023-04-01T11:28:20;657.67;;;507.03;;
10890;SDS011;5498;50.928;11.598;2023-04-01T11:31:50;658.53;;;509.00;;
10890;SDS011;5498;50.928;11.598;2023-04-01T11:35:06;657.60;;;509.60;;
10890;SDS011;5498;50.928;11.598;2023-04-01T11:38:41;659.53;;;518.33;;
10890;SDS011;5498;50.928;11.598;2023-04-01T11:42:01;649.57;;;473.53;;
10890;SDS011;5498;50.928;11.598;2023-04-01T11:45:21;649.17;;;473.37;;
10890;SDS011;5498;50.928;11.598;2023-04-01T11:48:41;659.40;;;512.97;;
10890;SDS011;5498;50.928;11.598;2023-04-01T11:52:01;657.67;;;502.30;;
10890;SDS011;5498;50.928;11.598;2023-04-01T11:55:23;652.10;;;483.83;;
10890;SDS011;5498;50.928;11.598;2023-04-01T11:58:39;655.17;;;501.60;;
10890;SDS011;5498;50.928;11.598;2023-04-01T12:01:59;649.50;;;485.63;;
10890;SDS011;5498;50.928;11.598;2023-04-01T12:05:16;650.00;;;482.33;;
10890;SDS011;5498;50.928;11.598;2023-04-01T12:08:38;658.03;;;512.17;;
10890;SDS011;5498;50.928;11.598;2023-04-01T12:11:50;668.47;;;541.47;;
10890;SDS011;5498;50.928;11.598;2023-04-01T12:15:10;662.27;;;519.13;;
10890;SDS011;5498;50.928;11.598;2023-04-01T12:18:22;663.50;;;531.07;;
10890;SDS011;5498;50.928;11.598;2023-04-01T12:21:35;663.90;;;536.60;;
10890;SDS011;5498;50.928;11.598;2023-04-01T12:24:45;660.37;;;524.73;;
10890;SDS011;5498;50.928;11.598;2023-04-01T12:27:53;665.77;;;544.80;;
10890;SDS011;5498;50.928;11.598;2023-04-01T12:31:13;666.57;;;551.43;;
10890;SDS011;5498;50.928;11.598;2023-04-01T12:34:32;659.30;;;525.23;;
10890;SDS011;5498;50.928;11.598;2023-04-01T12:38:02;674.27;;;567.40;;
10890;SDS011;5498;50.928;11.598;2023-04-01T12:41:18;666.53;;;551.70;;
10890;SDS011;5498;50.928;11.598;2023-04-01T12:44:31;663.73;;;550.43;;
10890;SDS011;5498;50.928;11.598;2023-04-01T12:47:55;673.47;;;570.53;;
10890;SDS011;5498;50.928;11.598;2023-04-01T12:51:20;668.97;;;552.53;;
10890;SDS011;5498;50.928;11.598;2023-04-01T12:55:07;671.83;;;564.63;;
10890;SDS011;5498;50.928;11.598;2023-04-01T13:02:21;662.47;;;537.10;;
10890;SDS011;5498;50.928;11.598;2023-04-01T13:05:43;672.43;;;563.87;;
10890;SDS011;5498;50.928;11.598;2023-04-01T13:09:18;675.77;;;575.80;;
10890;SDS011;5498;50.928;11.598;2023-04-01T13:12:36;670.17;;;565.70;;
10890;SDS011;5498;50.928;11.598;2023-04-01T13:16:00;673.20;;;569.47;;
10890;SDS011;5498;50.928;11.598;2023-04-01T13:19:15;670.10;;;559.57;;
10890;SDS011;5498;50.928;11.598;2023-04-01T13:22:24;663.77;;;531.83;;
10890;SDS011;5498;50.928;11.598;2023-04-01T13:25:34;669.17;;;551.70;;
10890;SDS011;5498;50.928;11.598;2023-04-01T13:28:43;667.43;;;551.27;;
10890;SDS011;5498;50.928;11.598;2023-04-01T13:32:00;663.87;;;542.57;;
10890;SDS011;5498;50.928;11.598;2023-04-01T13:35:28;659.27;;;519.03;;
10890;SDS011;5498;50.928;11.598;2023-04-01T13:38:47;663.20;;;535.57;;
10890;SDS011;5498;50.928;11.598;2023-04-01T13:42:12;655.60;;;512.43;;
10890;SDS011;5498;50.928;11.598;2023-04-01T13:45:20;661.60;;;527.53;;
10890;SDS011;5498;50.928;11.598;2023-04-01T13:48:37;653.93;;;499.60;;
10890;SDS011;5498;50.928;11.598;2023-04-01T13:52:03;659.73;;;523.63;;
10890;SDS011;5498;50.928;11.598;2023-04-01T13:59:06;663.13;;;537.20;;
10890;SDS011;5498;50.928;11.598;2023-04-01T14:02:43;672.63;;;563.67;;
10890;SDS011;5498;50.928;11.598;2023-04-01T14:05:54;670.30;;;559.87;;
10890;SDS011;5498;50.928;11.598;2023-04-01T14:09:14;667.53;;;550.00;;
10890;SDS011;5498;50.928;11.598;2023-04-01T14:12:30;672.93;;;571.50;;
10890;SDS011;5498;50.928;11.598;2023-04-01T14:15:42;666.97;;;547.40;;
10890;SDS011;5498;50.928;11.598;2023-04-01T14:19:03;662.27;;;534.03;;
10890;SDS011;5498;50.928;11.598;2023-04-01T14:22:33;666.07;;;547.90;;
10890;SDS011;5498;50.928;11.598;2023-04-01T14:25:55;658.67;;;521.73;;
10890;SDS011;5498;50.928;11.598;2023-04-01T14:29:23;664.83;;;529.60;;
10890;SDS011;5498;50.928;11.598;2023-04-01T14:32:38;669.43;;;545.03;;
10890;SDS011;5498;50.928;11.598;2023-04-01T14:35:56;669.23;;;545.20;;
10890;SDS011;5498;50.928;11.598;2023-04-01T14:39:36;667.33;;;538.37;;
10890;SDS011;5498;50.928;11.598;2023-04-01T14:43:01;664.73;;;533.87;;
10890;SDS011;5498;50.928;11.598;2023-04-01T14:46:23;664.53;;;528.67;;
10890;SDS011;5498;50.928;11.598;2023-04-01T14:50:02;667.60;;;534.17;;
10890;SDS011;5498;50.928;11.598;2023-04-01T14:53:11;668.83;;;543.97;;
10890;SDS011;5498;50.928;11.598;2023-04-01T14:56:38;674.40;;;561.93;;
10890;SDS011;5498;50.928;11.598;2023-04-01T14:59:47;670.37;;;549.43;;
10890;SDS011;5498;50.928;11.598;2023-04-01T15:02:54;681.70;;;580.53;;
10890;SDS011;5498;50.928;11.598;2023-04-01T15:06:22;673.73;;;553.67;;
10890;SDS011;5498;50.928;11.598;2023-04-01T15:10:02;675.07;;;559.17;;
10890;SDS011;5498;50.928;11.598;2023-04-01T15:13:14;675.30;;;552.20;;
10890;SDS011;5498;50.928;11.598;2023-04-01T15:16:25;669.17;;;542.37;;
10890;SDS011;5498;50.928;11.598;2023-04-01T15:19:37;668.47;;;541.30;;
10890;SDS011;5498;50.928;11.598;2023-04-01T15:22:53;675.60;;;566.57;;
10890;SDS011;5498;50.928;11.598;2023-04-01T15:30:20;673.97;;;564.77;;
10890;SDS011;5498;50.928;11.598;2023-04-01T15:33:37;674.27;;;567.67;;
10890;SDS011;5498;50.928;11.598;2023-04-01T15:36:53;675.47;;;565.00;;
10890;SDS011;5498;50.928;11.598;2023-04-01T15:40:01;676.87;;;566.90;;
10890;SDS011;5498;50.928;11.598;2023-04-01T15:43:19;675.87;;;564.47;;
10890;SDS011;5498;50.928;11.598;2023-04-01T15:46:43;683.37;;;586.30;;
10890;SDS011;5498;50.928;11.598;2023-04-01T15:49:49;677.77;;;573.63;;
10890;SDS011;5498;50.928;11.598;2023-04-01T15:53:01;681.30;;;578.00;;
10890;SDS011;5498;50.928;11.598;2023-04-01T15:56:19;678.50;;;569.37;;
10890;SDS011;5498;50.928;11.598;2023-04-01T15:59:47;674.57;;;556.40;;
10890;SDS011;5498;50.928;11.598;2023-04-01T16:06:40;675.20;;;558.83;;
10890;SDS011;5498;50.928;11.598;2023-04-01T16:13:35;677.73;;;558.27;;
10890;SDS011;5498;50.928;11.598;2023-04-01T16:16:53;680.73;;;577.77;;
10890;SDS011;5498;50.928;11.598;2023-04-01T16:20:14;676.17;;;564.63;;
10890;SDS011;5498;50.928;11.598;2023-04-01T16:23:24;676.43;;;567.77;;
10890;SDS011;5498;50.928;11.598;2023-04-01T16:26:35;677.10;;;563.93;;
10890;SDS011;5498;50.928;11.598;2023-04-01T16:29:42;675.70;;;559.07;;
10890;SDS011;5498;50.928;11.598;2023-04-01T16:32:49;672.97;;;550.40;;
10890;SDS011;5498;50.928;11.598;2023-04-01T16:35:55;677.80;;;557.97;;
10890;SDS011;5498;50.928;11.598;2023-04-01T16:39:09;673.33;;;553.70;;
10890;SDS011;5498;50.928;11.598;2023-04-01T16:42:31;669.80;;;529.47;;
10890;SDS011;5498;50.928;11.598;2023-04-01T16:45:42;673.10;;;547.97;;
10890;SDS011;5498;50.928;11.598;2023-04-01T16:49:15;669.43;;;532.60;;
10890;SDS011;5498;50.928;11.598;2023-04-01T16:52:30;669.43;;;521.53;;
10890;SDS011;5498;50.928;11.598;2023-04-01T16:55:45;663.10;;;500.90;;
10890;SDS011;5498;50.928;11.598;2023-04-01T16:58:55;662.67;;;500.77;;
10890;SDS011;5498;50.928;11.598;2023-04-01T17:02:04;663.83;;;508.10;;
10890;SDS011;5498;50.928;11.598;2023-04-01T17:05:13;660.53;;;498.17;;
10890;SDS011;5498;50.928;11.598;2023-04-01T17:08:17;666.97;;;527.67;;
10890;SDS011;5498;50.928;11.598;2023-04-01T17:11:33;666.73;;;523.47;;
10890;SDS011;5498;50.928;11.598;2023-04-01T17:14:43;675.47;;;553.13;;
10890;SDS011;5498;50.928;11.598;2023-04-01T17:17:53;669.97;;;536.37;;
10890;SDS011;5498;50.928;11.598;2023-04-01T17:21:05;681.53;;;542.80;;
10890;SDS011;5498;50.928;11.598;2023-04-01T17:24:14;668.50;;;531.40;;
10890;SDS011;5498;50.928;11.598;2023-04-01T17:27:36;670.27;;;532.27;;
10890;SDS011;5498;50.928;11.598;2023-04-01T17:30:50;669.83;;;527.73;;
10890;SDS011;5498;50.928;11.598;2023-04-01T17:34:06;666.13;;;514.07;;
10890;SDS011;5498;50.928;11.598;2023-04-01T17:37:28;660.73;;;494.57;;
10890;SDS011;5498;50.928;11.598;2023-04-01T17:40:50;661.87;;;495.37;;
10890;SDS011;5498;50.928;11.598;2023-04-01T17:44:03;658.07;;;487.47;;
10890;SDS011;5498;50.928;11.598;2023-04-01T17:47:23;658.60;;;485.73;;
10890;SDS011;5498;50.928;11.598;2023-04-01T17:50:46;658.93;;;488.13;;
10890;SDS011;5498;50.928;11.598;2023-04-01T17:54:04;661.63;;;489.07;;
10890;SDS011;5498;50.928;11.598;2023-04-01T17:57:25;665.63;;;504.70;;
10890;SDS011;5498;50.928;11.598;2023-04-01T18:00:48;666.20;;;502.57;;
10890;SDS011;5498;50.928;11.598;2023-04-01T18:08:15;671.63;;;505.53;;
10890;SDS011;5498;50.928;11.598;2023-04-01T18:11:30;667.70;;;505.10;;
10890;SDS011;5498;50.928;11.598;2023-04-01T18:14:51;666.47;;;501.87;;
10890;SDS011;5498;50.928;11.598;2023-04-01T18:18:16;660.37;;;486.90;;
10890;SDS011;5498;50.928;11.598;2023-04-01T18:21:40;673.77;;;527.73;;
10890;SDS011;5498;50.928;11.598;2023-04-01T18:24:48;669.27;;;500.67;;
10890;SDS011;5498;50.928;11.598;2023-04-01T18:28:10;665.33;;;495.53;;
10890;SDS011;5498;50.928;11.598;2023-04-01T18:31:25;658.77;;;472.77;;
10890;SDS011;5498;50.928;11.598;2023-04-01T18:34:39;669.50;;;504.57;;
10890;SDS011;5498;50.928;11.598;2023-04-01T18:37:54;665.17;;;489.73;;
10890;SDS011;5498;50.928;11.598;2023-04-01T18:41:10;660.10;;;474.90;;
10890;SDS011;5498;50.928;11.598;2023-04-01T18:44:33;660.70;;;468.23;;
10890;SDS011;5498;50.928;11.598;2023-04-01T18:47:45;655.30;;;455.67;;
10890;SDS011;5498;50.928;11.598;2023-04-01T18:50:58;660.20;;;468.73;;
10890;SDS011;5498;50.928;11.598;2023-04-01T18:54:05;652.17;;;442.43;;
10890;SDS011;5498;50.928;11.598;2023-04-01T18:57:13;659.43;;;455.50;;
10890;SDS011;5498;50.928;11.598;2023-04-01T19:00:19;649.87;;;415.57;;
10890;SDS011;5498;50.928;11.598;2023-04-01T19:03:27;644.70;;;411.30;;
10890;SDS011;5498;50.928;11.598;2023-04-01T19:06:41;647.10;;;415.63;;
10890;SDS011;5498;50.928;11.598;2023-04-01T19:09:48;649.93;;;424.47;;
10890;SDS011;5498;50.928;11.598;2023-04-01T19:12:57;647.63;;;417.87;;
10890;SDS011;5498;50.928;11.598;2023-04-01T19:16:20;645.03;;;407.13;;
10890;SDS011;5498;50.928;11.598;2023-04-01T19:19:34;643.60;;;395.63;;
10890;SDS011;5498;50.928;11.598;2023-04-01T19:23:01;641.67;;;384.53;;
10890;SDS011;5498;50.928;11.598;2023-04-01T19:26:46;638.43;;;383.23;;